Brooks, West Virginia
Current Conditions -  °F | °C
As of 8:00 PM on Thursday 27 Nov 2014 (Local Time) from KBKW Reporting Station
Light Snow Light Snow  
Wind Chill: 14°   Ceiling: 2900
Heat Index: 25°   Visibility: 9mi
Dew Point: 18°   Wind: 13mph
Humidity: 75%   Direction: 300°WNW
Pressure: 30.22"   Gusts: NA
Location:  37.6035°N, 80.8542°W
Report Text: KBKW 280100Z AUTO 30011KT 9SM -SN FEW019 BKN029 OVC036 M04/M08 A3022 RMK AO2 SNB0058 P0000 T10391078
Loading
Personal Weather Stations






























Interactive Weather Map New forecast layout! Learn more

10-Day Weather Forecast

Advertisements
Track Severe Weather on mobile